createdAt,value
2023-05-09T00:01:24.601Z,11.02
2023-05-09T00:03:52.155Z,11.00
2023-05-09T00:10:37.922Z,10.82
2023-05-09T00:13:04.409Z,11.08
2023-05-09T00:15:31.978Z,10.80
2023-05-09T00:17:58.707Z,10.90
2023-05-09T00:20:25.260Z,11.01
2023-05-09T00:22:52.273Z,10.98
2023-05-09T00:25:18.748Z,10.95
2023-05-09T00:27:45.234Z,10.91
2023-05-09T00:30:11.862Z,10.83
2023-05-09T00:32:40.166Z,10.77
2023-05-09T00:35:07.997Z,10.70
2023-05-09T00:37:34.517Z,10.65
2023-05-09T00:40:00.946Z,10.61
2023-05-09T00:42:27.511Z,10.56
2023-05-09T00:44:54.011Z,10.48
2023-05-09T00:47:23.043Z,10.20
2023-05-09T00:49:50.337Z,10.02
2023-05-09T00:52:17.561Z,9.96
2023-05-09T00:54:44.027Z,9.88
2023-05-09T00:57:10.540Z,9.79
2023-05-09T00:59:37.376Z,9.71
2023-05-09T01:02:03.832Z,9.67
2023-05-09T01:04:30.411Z,9.57
2023-05-09T01:07:16.818Z,9.58
2023-05-09T01:09:52.355Z,9.46
2023-05-09T01:12:45.020Z,9.34
2023-05-09T01:15:17.538Z,9.34
2023-05-09T01:17:53.655Z,9.13
2023-05-09T01:20:33.428Z,9.12
2023-05-09T01:23:38.859Z,9.13
2023-05-09T01:26:10.601Z,9.18
2023-05-09T01:28:40.049Z,9.09
2023-05-09T01:31:08.990Z,8.95
2023-05-09T01:33:39.581Z,8.93
2023-05-09T01:36:12.085Z,8.94
2023-05-09T01:38:42.165Z,8.79
2023-05-09T01:41:12.043Z,8.61
2023-05-09T01:43:39.358Z,8.79
2023-05-09T01:46:07.392Z,8.69
2023-05-09T01:48:36.749Z,8.69
2023-05-09T01:51:05.509Z,8.59
2023-05-09T01:53:34.352Z,8.37
2023-05-09T01:56:04.001Z,8.61
2023-05-09T01:58:33.567Z,8.57
2023-05-09T02:01:01.333Z,8.47
2023-05-09T02:03:28.606Z,8.52
2023-05-09T02:05:56.441Z,8.47
2023-05-09T02:08:23.404Z,8.45
2023-05-09T02:10:50.487Z,8.48
2023-05-09T02:13:17.079Z,8.34
2023-05-09T02:15:44.305Z,8.55
2023-05-09T02:18:11.008Z,8.56
2023-05-09T02:20:37.480Z,8.60
2023-05-09T02:23:04.548Z,8.60
2023-05-09T02:25:32.174Z,8.67
2023-05-09T02:28:00.031Z,8.62
2023-05-09T02:30:27.593Z,8.60
2023-05-09T02:32:59.809Z,8.39
2023-05-09T02:35:27.809Z,8.45
2023-05-09T02:37:55.176Z,8.40
2023-05-09T02:40:22.619Z,8.39
2023-05-09T02:42:49.182Z,8.15
2023-05-09T02:45:15.952Z,8.38
2023-05-09T02:47:42.846Z,8.09
2023-05-09T02:50:09.590Z,8.19
2023-05-09T02:52:37.929Z,8.35
2023-05-09T02:55:05.079Z,8.26
2023-05-09T02:57:35.147Z,8.27
2023-05-09T03:00:01.652Z,8.06
2023-05-09T03:02:29.211Z,8.23
2023-05-09T03:04:56.505Z,8.14
2023-05-09T03:07:22.936Z,7.83
2023-05-09T03:09:49.407Z,7.97
2023-05-09T03:12:16.095Z,8.00
2023-05-09T03:14:42.539Z,7.99
2023-05-09T03:17:09.523Z,7.99
2023-05-09T03:19:36.700Z,7.70
2023-05-09T03:22:03.286Z,7.79
2023-05-09T03:24:33.640Z,7.88
2023-05-09T03:27:00.303Z,7.85
2023-05-09T03:29:27.599Z,7.87
2023-05-09T03:31:54.095Z,7.86
2023-05-09T03:34:20.635Z,7.76
2023-05-09T03:36:47.128Z,7.80
2023-05-09T03:39:14.635Z,7.58
2023-05-09T03:41:44.361Z,7.82
2023-05-09T03:44:12.724Z,7.80
2023-05-09T03:46:39.238Z,7.77
2023-05-09T03:49:05.893Z,7.77
2023-05-09T03:51:32.635Z,7.72
2023-05-09T03:54:01.290Z,7.66
2023-05-09T03:56:28.552Z,7.64
2023-05-09T03:58:55.064Z,7.63
2023-05-09T04:01:22.066Z,7.57
2023-05-09T04:03:48.803Z,7.58
2023-05-09T04:06:15.922Z,7.63
2023-05-09T04:08:44.358Z,7.56
2023-05-09T04:11:10.998Z,7.63
2023-05-09T04:13:40.356Z,7.56
2023-05-09T04:16:19.917Z,7.68
2023-05-09T04:18:46.671Z,7.67
2023-05-09T04:21:13.715Z,7.72
2023-05-09T04:23:43.543Z,7.72
2023-05-09T04:26:12.439Z,7.88
2023-05-09T04:28:39.337Z,7.78
2023-05-09T04:31:07.036Z,7.90
2023-05-09T04:33:36.418Z,8.05
2023-05-09T04:36:04.412Z,8.28
2023-05-09T04:38:31.429Z,8.33
2023-05-09T04:40:58.985Z,8.48
2023-05-09T04:43:27.930Z,8.70
2023-05-09T04:45:54.464Z,8.84
2023-05-09T04:48:21.015Z,9.02
2023-05-09T04:50:49.584Z,9.04
2023-05-09T04:53:16.033Z,9.19
2023-05-09T04:55:43.853Z,9.34
2023-05-09T04:58:11.344Z,9.37
2023-05-09T05:00:38.212Z,9.40
2023-05-09T05:03:07.069Z,9.42
2023-05-09T05:05:36.745Z,9.36
2023-05-09T05:08:04.172Z,9.37
2023-05-09T05:10:35.484Z,9.37
2023-05-09T05:13:06.878Z,9.44
2023-05-09T05:15:35.072Z,9.53
2023-05-09T05:18:02.284Z,9.64
2023-05-09T05:20:33.157Z,9.62
2023-05-09T05:23:00.453Z,9.72
2023-05-09T05:25:27.231Z,9.67
2023-05-09T05:27:55.289Z,9.83
2023-05-09T05:30:21.985Z,9.89
2023-05-09T05:32:49.189Z,9.87
2023-05-09T05:35:19.398Z,10.05
2023-05-09T05:37:47.637Z,10.12
2023-05-09T05:40:15.826Z,10.14
2023-05-09T05:42:46.563Z,10.23
2023-05-09T05:45:13.267Z,10.30
2023-05-09T05:47:43.688Z,10.45
2023-05-09T05:50:12.096Z,10.59
2023-05-09T05:52:39.726Z,10.55
2023-05-09T05:55:08.069Z,10.82
2023-05-09T05:57:35.201Z,10.80
2023-05-09T06:00:01.808Z,10.76
2023-05-09T06:02:28.401Z,10.86
2023-05-09T06:04:56.066Z,10.97
2023-05-09T06:07:23.584Z,11.18
2023-05-09T06:09:52.053Z,11.14
2023-05-09T06:12:18.497Z,11.34
2023-05-09T06:14:45.106Z,11.37
2023-05-09T06:17:12.823Z,11.52
2023-05-09T06:19:39.332Z,11.71
2023-05-09T06:22:05.796Z,11.86
2023-05-09T06:24:36.219Z,11.82
2023-05-09T06:27:04.307Z,12.03
2023-05-09T06:29:30.983Z,12.18
2023-05-09T06:31:57.623Z,12.32
2023-05-09T06:34:24.131Z,12.24
2023-05-09T06:36:50.776Z,12.37
2023-05-09T06:39:18.392Z,12.37
2023-05-09T06:41:45.019Z,12.44
2023-05-09T06:44:11.456Z,12.32
2023-05-09T06:46:38.034Z,12.62
2023-05-09T06:49:06.002Z,12.76
2023-05-09T06:51:32.629Z,12.99
2023-05-09T06:53:59.115Z,13.00
2023-05-09T06:56:26.878Z,12.96
2023-05-09T06:58:53.833Z,13.03
2023-05-09T07:01:20.398Z,13.17
2023-05-09T07:03:47.507Z,13.19
2023-05-09T07:06:14.080Z,13.02
2023-05-09T07:08:40.528Z,13.04
2023-05-09T07:11:07.239Z,13.02
2023-05-09T07:13:33.718Z,13.06
2023-05-09T07:16:00.310Z,13.03
2023-05-09T07:18:26.841Z,13.10
2023-05-09T07:20:53.394Z,13.07
2023-05-09T07:23:19.900Z,13.28
2023-05-09T07:25:46.525Z,13.28
2023-05-09T07:28:13.177Z,13.08
2023-05-09T07:30:39.639Z,13.39
2023-05-09T07:33:06.970Z,13.20
2023-05-09T07:35:33.455Z,13.48
2023-05-09T07:38:00.025Z,13.53
2023-05-09T07:40:26.650Z,13.54
2023-05-09T07:42:55.170Z,13.66
2023-05-09T07:45:23.775Z,13.83
2023-05-09T07:47:50.678Z,13.96
2023-05-09T07:50:17.427Z,14.22
2023-05-09T07:52:43.902Z,14.61
2023-05-09T07:55:12.224Z,14.82
2023-05-09T07:57:40.059Z,15.00
2023-05-09T08:00:08.898Z,15.13
2023-05-09T08:02:39.960Z,14.87
2023-05-09T08:05:08.032Z,14.79
2023-05-09T08:07:34.833Z,14.82
2023-05-09T08:10:01.412Z,15.34
2023-05-09T08:12:27.858Z,15.27
2023-05-09T08:14:54.548Z,15.35
2023-05-09T08:17:21.101Z,15.56
2023-05-09T08:19:47.575Z,15.52
2023-05-09T08:22:18.733Z,15.69
2023-05-09T08:24:46.384Z,15.73
2023-05-09T08:27:13.975Z,15.95
2023-05-09T08:29:41.191Z,16.14
2023-05-09T08:32:08.105Z,16.09
2023-05-09T08:34:34.960Z,15.73
2023-05-09T08:37:02.329Z,15.53
2023-05-09T08:39:28.826Z,15.42
2023-05-09T08:41:58.797Z,15.36
2023-05-09T08:44:26.272Z,15.25
2023-05-09T08:46:56.889Z,15.10
2023-05-09T08:49:24.135Z,14.94
2023-05-09T08:51:51.054Z,15.02
2023-05-09T08:54:20.608Z,15.17
2023-05-09T08:56:48.011Z,15.13
2023-05-09T08:59:16.537Z,15.13
2023-05-09T09:01:43.791Z,15.31
2023-05-09T09:04:11.944Z,15.20
2023-05-09T09:06:39.948Z,15.18
2023-05-09T09:09:08.788Z,15.23
2023-05-09T09:11:36.804Z,15.32
2023-05-09T09:14:13.162Z,15.60
2023-05-09T09:16:41.653Z,15.58
2023-05-09T09:19:13.051Z,15.49
2023-05-09T09:21:42.691Z,15.61
2023-05-09T09:24:13.083Z,15.47
2023-05-09T09:26:46.503Z,15.46
2023-05-09T09:29:13.442Z,15.45
2023-05-09T09:31:44.638Z,15.54
2023-05-09T09:34:14.654Z,15.58
2023-05-09T09:36:41.241Z,15.54
2023-05-09T09:39:09.115Z,15.68
2023-05-09T09:41:38.001Z,16.04
2023-05-09T09:44:15.732Z,15.94
2023-05-09T09:46:53.008Z,15.80
2023-05-09T09:49:24.477Z,15.88
2023-05-09T09:51:53.146Z,15.90
2023-05-09T09:54:19.907Z,15.99
2023-05-09T09:56:54.995Z,15.98
2023-05-09T09:59:26.520Z,16.10
2023-05-09T10:02:07.567Z,16.10
2023-05-09T10:04:39.251Z,16.11
2023-05-09T10:07:08.383Z,16.28
2023-05-09T10:09:35.762Z,16.38
2023-05-09T10:12:06.699Z,16.46
2023-05-09T10:14:35.427Z,16.64
2023-05-09T10:17:04.791Z,16.78
2023-05-09T10:19:32.938Z,16.79
2023-05-09T10:22:04.915Z,16.95
2023-05-09T10:24:51.111Z,17.00
2023-05-09T10:27:23.013Z,17.25
2023-05-09T10:29:57.302Z,17.44
2023-05-09T10:32:29.087Z,17.45
2023-05-09T10:35:06.933Z,17.65
2023-05-09T10:37:33.933Z,17.75
2023-05-09T10:40:04.878Z,17.88
2023-05-09T10:42:31.903Z,18.13
2023-05-09T10:44:58.409Z,18.34
2023-05-09T10:47:29.698Z,18.35
2023-05-09T10:49:57.507Z,18.41
2023-05-09T10:52:24.055Z,18.48
2023-05-09T10:55:05.093Z,18.70
2023-05-09T10:57:32.667Z,18.68
2023-05-09T11:00:00.473Z,19.05
2023-05-09T11:02:30.963Z,19.04
2023-05-09T11:05:17.660Z,19.08
2023-05-09T11:07:44.665Z,19.17
2023-05-09T11:10:16.704Z,19.07
2023-05-09T11:12:59.623Z,19.23
2023-05-09T11:15:27.853Z,19.32
2023-05-09T11:18:08.327Z,19.43
2023-05-09T11:20:36.042Z,19.49
2023-05-09T11:23:06.774Z,19.47
2023-05-09T11:25:33.377Z,19.40
2023-05-09T11:28:03.016Z,19.49
2023-05-09T11:30:40.726Z,19.63
2023-05-09T11:33:24.724Z,19.50
2023-05-09T11:36:31.735Z,19.60
2023-05-09T11:39:06.156Z,19.53
2023-05-09T11:41:39.804Z,19.57
2023-05-09T11:44:21.296Z,19.65
2023-05-09T11:46:49.121Z,19.69
2023-05-09T11:49:15.868Z,19.61
2023-05-09T11:51:42.661Z,19.66
2023-05-09T11:54:11.358Z,19.58
2023-05-09T11:56:42.008Z,19.47
2023-05-09T11:59:08.688Z,19.20
2023-05-09T12:01:35.922Z,19.11
2023-05-09T12:04:02.897Z,19.20
2023-05-09T12:06:30.000Z,19.21
2023-05-09T12:08:59.337Z,19.28
2023-05-09T12:11:25.896Z,19.05
2023-05-09T12:13:52.922Z,19.22
2023-05-09T12:16:21.220Z,19.25
2023-05-09T12:18:49.952Z,19.18
2023-05-09T12:21:22.868Z,19.09
2023-05-09T12:23:51.768Z,19.10
2023-05-09T12:26:22.037Z,18.95
2023-05-09T12:28:48.927Z,18.96
2023-05-09T12:31:17.021Z,18.93
2023-05-09T12:33:43.519Z,19.05
2023-05-09T12:36:11.468Z,19.04
2023-05-09T12:38:38.752Z,19.21
2023-05-09T12:41:22.335Z,19.23
2023-05-09T12:43:57.081Z,19.10
2023-05-09T12:46:24.143Z,19.06
2023-05-09T12:48:51.681Z,19.05
2023-05-09T12:51:20.398Z,19.02
2023-05-09T12:53:47.128Z,19.12
2023-05-09T12:56:18.425Z,19.09
2023-05-09T12:58:55.067Z,19.10
2023-05-09T13:01:27.387Z,19.02
2023-05-09T13:04:02.739Z,18.96
2023-05-09T13:06:29.347Z,19.13
2023-05-09T13:09:01.101Z,19.12
2023-05-09T13:11:28.682Z,19.13
2023-05-09T13:13:55.675Z,19.30
2023-05-09T13:16:22.621Z,19.17
2023-05-09T13:18:49.249Z,19.20
2023-05-09T13:21:15.914Z,19.29
2023-05-09T13:23:42.408Z,19.30
2023-05-09T13:26:10.385Z,19.35
2023-05-09T13:28:36.958Z,19.37
2023-05-09T13:31:04.052Z,19.34
2023-05-09T13:33:30.782Z,19.28
2023-05-09T13:35:57.331Z,19.26
2023-05-09T13:38:24.186Z,19.15
2023-05-09T13:40:50.677Z,19.21
2023-05-09T13:43:17.151Z,19.22
2023-05-09T13:45:43.616Z,19.35
2023-05-09T13:48:11.677Z,19.43
2023-05-09T13:50:38.222Z,19.33
2023-05-09T13:53:04.866Z,19.39
2023-05-09T13:55:31.664Z,19.39
2023-05-09T13:57:58.266Z,19.39
2023-05-09T14:00:26.517Z,19.41
2023-05-09T14:02:53.110Z,19.41
2023-05-09T14:05:19.784Z,19.58
2023-05-09T14:07:46.422Z,19.59
2023-05-09T14:10:12.998Z,19.48
2023-05-09T14:12:40.717Z,19.55
2023-05-09T14:15:08.271Z,19.55
2023-05-09T14:17:34.891Z,19.56
2023-05-09T14:20:02.019Z,19.62
2023-05-09T14:22:28.552Z,19.54
2023-05-09T14:24:58.272Z,19.49
2023-05-09T14:27:25.119Z,19.57
2023-05-09T14:29:51.951Z,19.58
2023-05-09T14:32:18.458Z,19.67
2023-05-09T14:34:45.642Z,19.68
2023-05-09T14:37:14.815Z,19.66
2023-05-09T14:39:42.503Z,19.63
2023-05-09T14:42:11.374Z,19.63
2023-05-09T14:44:38.659Z,19.67
2023-05-09T14:47:05.339Z,19.68
2023-05-09T14:49:32.441Z,19.71
2023-05-09T14:51:59.199Z,19.67
2023-05-09T14:54:26.104Z,19.59
2023-05-09T14:56:52.690Z,19.71
2023-05-09T14:59:19.251Z,19.63
2023-05-09T15:01:46.201Z,19.77
2023-05-09T15:04:12.868Z,19.71
2023-05-09T15:06:39.602Z,19.74
2023-05-09T15:09:06.416Z,19.75
2023-05-09T15:11:43.716Z,19.68
2023-05-09T15:14:14.856Z,19.80
2023-05-09T15:16:41.514Z,19.82
2023-05-09T15:19:08.287Z,19.86
2023-05-09T15:21:35.049Z,19.76
2023-05-09T15:24:02.420Z,19.57
2023-05-09T15:26:29.388Z,19.62
2023-05-09T15:28:55.908Z,19.57
2023-05-09T15:31:24.032Z,19.53
2023-05-09T15:33:50.693Z,19.42
2023-05-09T15:36:17.211Z,19.35
2023-05-09T15:38:46.205Z,19.22
2023-05-09T15:41:12.848Z,19.19
2023-05-09T15:43:39.408Z,19.19
2023-05-09T15:46:06.010Z,19.00
2023-05-09T15:48:32.636Z,18.98
2023-05-09T15:50:59.111Z,18.92
2023-05-09T15:53:27.515Z,18.99
2023-05-09T15:55:54.101Z,18.90
2023-05-09T15:58:20.678Z,18.91
2023-05-09T16:00:47.636Z,18.94
2023-05-09T16:03:14.158Z,18.87
2023-05-09T16:05:41.078Z,18.89
2023-05-09T16:08:07.683Z,18.89
2023-05-09T16:10:34.233Z,18.79
2023-05-09T16:13:00.915Z,18.76
2023-05-09T16:15:27.578Z,18.63
2023-05-09T16:17:54.185Z,18.61
2023-05-09T16:20:20.802Z,18.64
2023-05-09T16:22:47.432Z,18.58
2023-05-09T16:25:14.066Z,18.69
2023-05-09T16:27:40.702Z,18.62
2023-05-09T16:30:07.871Z,18.64
2023-05-09T16:32:34.428Z,18.55
2023-05-09T16:35:00.945Z,18.42
2023-05-09T16:37:29.737Z,18.52
2023-05-09T16:39:56.471Z,18.48
2023-05-09T16:42:23.110Z,18.51
2023-05-09T16:44:49.595Z,18.41
2023-05-09T16:47:16.130Z,18.45
2023-05-09T16:49:42.680Z,18.44
2023-05-09T16:52:09.471Z,18.35
2023-05-09T16:54:35.974Z,18.35
2023-05-09T16:57:03.281Z,18.43
2023-05-09T16:59:29.780Z,18.33
2023-05-09T17:01:57.616Z,18.29
2023-05-09T17:04:25.283Z,18.33
2023-05-09T17:06:53.301Z,18.24
2023-05-09T17:09:19.833Z,18.23
2023-05-09T17:11:46.444Z,18.17
2023-05-09T17:14:12.990Z,18.16
2023-05-09T17:16:39.564Z,18.16
2023-05-09T17:19:06.244Z,18.26
2023-05-09T17:21:32.897Z,18.30
2023-05-09T17:23:59.365Z,18.25
2023-05-09T17:26:25.989Z,18.11
2023-05-09T17:28:52.539Z,18.16
2023-05-09T17:31:19.167Z,18.12
2023-05-09T17:33:45.795Z,18.05
2023-05-09T17:36:12.294Z,18.03
2023-05-09T17:38:38.815Z,18.01
2023-05-09T17:41:05.784Z,17.92
2023-05-09T17:43:32.430Z,17.78
2023-05-09T17:45:59.164Z,17.66
2023-05-09T17:48:26.247Z,17.80
2023-05-09T17:50:52.736Z,17.87
2023-05-09T17:53:19.285Z,17.85
2023-05-09T17:55:45.805Z,17.82
2023-05-09T17:58:12.408Z,17.70
2023-05-09T18:00:38.921Z,17.62
2023-05-09T18:03:07.367Z,17.69
2023-05-09T18:05:34.052Z,17.61
2023-05-09T18:08:01.301Z,17.56
2023-05-09T18:10:28.761Z,17.49
2023-05-09T18:12:55.426Z,17.50
2023-05-09T18:15:22.008Z,17.47
2023-05-09T18:17:49.293Z,17.42
2023-05-09T18:20:16.745Z,17.37
2023-05-09T18:22:43.396Z,17.34
2023-05-09T18:25:10.365Z,17.29
2023-05-09T18:27:36.896Z,17.21
2023-05-09T18:30:03.769Z,17.10
2023-05-09T18:32:30.290Z,17.02
2023-05-09T18:34:56.856Z,17.18
2023-05-09T18:37:24.684Z,17.08
2023-05-09T18:39:51.446Z,17.08
2023-05-09T18:42:18.193Z,16.97
2023-05-09T18:44:44.830Z,16.93
2023-05-09T18:47:11.951Z,17.02
2023-05-09T18:49:38.890Z,16.99
2023-05-09T18:52:05.429Z,16.90
2023-05-09T18:54:31.960Z,16.92
2023-05-09T18:56:58.495Z,16.86
2023-05-09T18:59:25.025Z,16.97
2023-05-09T19:01:51.849Z,16.95
2023-05-09T19:04:19.669Z,16.86
2023-05-09T19:06:46.973Z,17.11
2023-05-09T19:09:13.678Z,16.97
2023-05-09T19:11:40.216Z,16.86
2023-05-09T19:14:07.114Z,16.83
2023-05-09T19:16:33.713Z,16.73
2023-05-09T19:19:00.999Z,16.67
2023-05-09T19:21:28.348Z,16.62
2023-05-09T19:23:54.957Z,16.50
2023-05-09T19:26:22.059Z,16.47
2023-05-09T19:28:48.668Z,16.48
2023-05-09T19:31:15.633Z,16.44
2023-05-09T19:33:45.505Z,16.40
2023-05-09T19:36:12.797Z,16.33
2023-05-09T19:38:39.491Z,16.33
2023-05-09T19:41:05.997Z,16.24
2023-05-09T19:43:32.562Z,16.22
2023-05-09T19:45:59.939Z,16.15
2023-05-09T19:48:26.653Z,16.16
2023-05-09T19:50:57.547Z,16.18
2023-05-09T19:53:24.673Z,16.12
2023-05-09T19:55:51.704Z,16.10
2023-05-09T19:58:18.403Z,16.06
2023-05-09T20:00:45.301Z,15.98
2023-05-09T20:03:12.046Z,16.03
2023-05-09T20:05:38.602Z,15.97
2023-05-09T20:08:05.184Z,15.97
2023-05-09T20:10:32.968Z,15.90
2023-05-09T20:13:00.885Z,15.79
2023-05-09T20:15:27.899Z,15.78
2023-05-09T20:17:54.737Z,15.76
2023-05-09T20:20:21.475Z,15.75
2023-05-09T20:22:48.124Z,15.58
2023-05-09T20:25:15.301Z,15.73
2023-05-09T20:27:42.066Z,15.70
2023-05-09T20:30:09.022Z,15.68
2023-05-09T20:32:35.527Z,15.61
2023-05-09T20:35:02.333Z,15.58
2023-05-09T20:37:28.829Z,15.52
2023-05-09T20:39:55.623Z,15.48
2023-05-09T20:42:23.230Z,15.48
2023-05-09T20:44:51.480Z,15.45
2023-05-09T20:47:18.072Z,15.59
2023-05-09T20:49:44.528Z,15.57
2023-05-09T20:52:11.557Z,15.60
2023-05-09T20:54:38.560Z,15.57
2023-05-09T20:57:05.164Z,15.57
2023-05-09T20:59:31.670Z,15.66
2023-05-09T21:01:58.213Z,15.62
2023-05-09T21:04:24.971Z,15.61
2023-05-09T21:06:51.556Z,15.66
2023-05-09T21:09:18.495Z,15.67
2023-05-09T21:11:45.739Z,15.54
2023-05-09T21:14:12.225Z,15.58
2023-05-09T21:16:38.774Z,15.52
2023-05-09T21:19:06.592Z,15.41
2023-05-09T21:21:33.178Z,15.26
2023-05-09T21:24:04.299Z,15.31
2023-05-09T21:26:30.862Z,15.31
2023-05-09T21:28:57.376Z,15.17
2023-05-09T21:31:24.020Z,15.00
2023-05-09T21:33:50.789Z,14.91
2023-05-09T21:36:17.328Z,14.84
2023-05-09T21:38:43.801Z,14.76
2023-05-09T21:41:10.484Z,14.67
2023-05-09T21:43:37.713Z,14.67
2023-05-09T21:46:05.509Z,14.45
2023-05-09T21:48:32.227Z,14.29
2023-05-09T21:51:02.975Z,14.12
2023-05-09T21:53:29.595Z,14.05
2023-05-09T21:55:56.091Z,13.98
2023-05-09T21:58:22.552Z,14.00
2023-05-09T22:00:49.099Z,13.91
2023-05-09T22:03:15.824Z,13.77
2023-05-09T22:05:42.586Z,13.62
2023-05-09T22:08:09.247Z,13.45
2023-05-09T22:10:37.425Z,13.45
2023-05-09T22:13:03.984Z,13.53
2023-05-09T22:15:30.603Z,13.48
2023-05-09T22:17:57.194Z,13.44
2023-05-09T22:20:23.964Z,13.50
2023-05-09T22:22:50.529Z,13.34
2023-05-09T22:25:17.138Z,13.37
2023-05-09T22:27:43.672Z,13.49
2023-05-09T22:30:12.349Z,13.43
2023-05-09T22:32:39.619Z,13.39
2023-05-09T22:35:06.876Z,13.29
2023-05-09T22:37:33.454Z,13.43
2023-05-09T22:40:01.457Z,13.39
2023-05-09T22:42:29.363Z,13.41
2023-05-09T22:44:56.155Z,13.37
2023-05-09T22:47:22.781Z,13.38
2023-05-09T22:49:50.362Z,13.43
2023-05-09T22:52:17.125Z,13.32
2023-05-09T22:54:43.790Z,13.41
2023-05-09T22:57:10.732Z,13.41
2023-05-09T22:59:37.349Z,13.41
2023-05-09T23:02:04.804Z,13.37
2023-05-09T23:04:32.563Z,13.37
2023-05-09T23:06:59.098Z,13.31
2023-05-09T23:09:25.818Z,13.28
2023-05-09T23:11:52.323Z,13.27
2023-05-09T23:14:18.892Z,13.20
2023-05-09T23:16:45.402Z,13.33
2023-05-09T23:19:11.942Z,13.31
2023-05-09T23:21:38.541Z,13.32
2023-05-09T23:24:05.246Z,13.20
2023-05-09T23:26:32.287Z,13.29
2023-05-09T23:28:58.761Z,13.26
2023-05-09T23:31:25.438Z,13.24
2023-05-09T23:33:52.328Z,13.27
2023-05-09T23:36:18.917Z,13.27
2023-05-09T23:38:45.417Z,13.25
2023-05-09T23:41:12.824Z,13.22
2023-05-09T23:43:39.477Z,13.17
2023-05-09T23:46:06.044Z,13.24
2023-05-09T23:48:32.632Z,13.21
2023-05-09T23:50:59.095Z,13.28
2023-05-09T23:53:26.122Z,13.42
2023-05-09T23:55:52.621Z,13.30
2023-05-09T23:58:19.076Z,13.23
